Aiea, Hawaii
Current Conditions -  °F | °C
As of 9:53 AM on Sunday 25 Jan 2015 (Local Time) from PHNL Reporting Station
Broken Clouds Broken Clouds  
Wind Chill: 74°   Ceiling: 6000
Heat Index: 74°   Visibility: 10mi
Dew Point: 62°   Wind: 10mph
Humidity: 66%   Direction: 360°N
Pressure: 30.06"   Gusts: 20mph
Location:  21.38°N, 157.93°W
Report Text: PHNL 251953Z 36009G17KT 340V040 10SM FEW033 SCT050 BKN060 23/17 A3006 RMK AO2 SLP180 VCSH NE-E T02330167 $
Loading
Personal Weather Stations






























Interactive Weather Map New forecast layout! Learn more

10-Day Weather Forecast

Advertisements
Track Severe Weather on mobile